createdAt,value
2022-09-26T00:01:40.782Z,20.13
2022-09-26T00:04:43.337Z,19.83
2022-09-26T00:07:45.934Z,19.87
2022-09-26T00:10:57.719Z,19.95
2022-09-26T00:14:04.205Z,14.90
2022-09-26T00:17:06.801Z,19.48
2022-09-26T00:20:09.590Z,16.67
2022-09-26T00:23:11.941Z,17.33
2022-09-26T00:26:15.952Z,18.42
2022-09-26T00:29:18.264Z,19.02
2022-09-26T00:32:21.723Z,18.40
2022-09-26T00:35:25.090Z,17.10
2022-09-26T00:38:27.579Z,20.50
2022-09-26T00:41:29.989Z,20.15
2022-09-26T00:44:42.815Z,18.10
2022-09-26T00:47:59.683Z,16.65
2022-09-26T00:51:02.940Z,16.88
2022-09-26T00:54:06.921Z,16.83
2022-09-26T00:57:23.815Z,15.88
2022-09-26T01:00:27.305Z,16.08
2022-09-26T01:03:31.678Z,17.33
2022-09-26T01:06:34.104Z,16.92
2022-09-26T01:09:37.894Z,19.27
2022-09-26T01:12:40.360Z,17.88
2022-09-26T01:15:42.751Z,15.20
2022-09-26T01:18:47.908Z,18.42
2022-09-26T01:22:25.449Z,14.95
2022-09-26T01:25:57.295Z,17.67
2022-09-26T01:29:14.839Z,16.10
2022-09-26T01:32:50.914Z,17.90
2022-09-26T01:36:02.019Z,16.63
2022-09-26T01:39:16.351Z,13.95
2022-09-26T01:42:24.616Z,13.87
2022-09-26T01:45:37.889Z,15.20
2022-09-26T01:48:48.384Z,14.02
2022-09-26T01:51:53.465Z,14.07
2022-09-26T01:55:16.021Z,13.70
2022-09-26T01:58:25.655Z,13.50
2022-09-26T02:01:31.270Z,13.90
2022-09-26T02:04:38.735Z,12.10
2022-09-26T02:08:04.047Z,12.10
2022-09-26T02:11:12.792Z,12.93
2022-09-26T02:14:23.830Z,13.83
2022-09-26T02:17:33.546Z,13.80
2022-09-26T02:20:38.029Z,12.98
2022-09-26T02:23:40.997Z,13.00
2022-09-26T02:26:43.970Z,12.52
2022-09-26T02:29:46.295Z,12.13
2022-09-26T02:32:50.875Z,13.65
2022-09-26T02:35:56.340Z,12.38
2022-09-26T02:39:02.725Z,12.88
2022-09-26T02:42:37.027Z,13.25
2022-09-26T02:45:45.579Z,12.57
2022-09-26T02:48:48.305Z,14.57
2022-09-26T02:52:19.141Z,13.10
2022-09-26T02:55:24.715Z,13.30
2022-09-26T02:58:55.326Z,12.20
2022-09-26T03:02:03.314Z,12.93
2022-09-26T03:05:13.191Z,13.25
2022-09-26T03:08:23.198Z,13.93
2022-09-26T03:11:29.105Z,13.52
2022-09-26T03:14:34.310Z,14.00
2022-09-26T03:17:40.046Z,15.97
2022-09-26T03:20:42.600Z,15.52
2022-09-26T03:23:45.414Z,12.57
2022-09-26T03:26:48.084Z,15.20
2022-09-26T03:29:50.629Z,12.85
2022-09-26T03:32:57.421Z,12.00
2022-09-26T03:36:04.777Z,14.77
2022-09-26T03:39:07.273Z,15.48
2022-09-26T03:42:24.799Z,15.82
2022-09-26T03:45:29.782Z,13.10
2022-09-26T03:48:40.848Z,15.10
2022-09-26T03:51:44.281Z,15.02
2022-09-26T03:54:46.770Z,13.57
2022-09-26T03:57:50.905Z,13.95
2022-09-26T04:01:16.088Z,13.10
2022-09-26T04:04:18.456Z,14.60
2022-09-26T04:07:22.100Z,13.68
2022-09-26T04:10:24.509Z,14.90
2022-09-26T04:13:50.045Z,15.52
2022-09-26T04:16:50.208Z,14.75
2022-09-26T04:20:02.179Z,14.70
2022-09-26T04:23:04.805Z,12.48
2022-09-26T04:26:10.002Z,16.00
2022-09-26T04:29:13.398Z,14.30
2022-09-26T04:32:27.821Z,16.52
2022-09-26T04:35:48.925Z,12.93
2022-09-26T04:38:51.398Z,15.60
2022-09-26T04:41:55.240Z,14.98
2022-09-26T04:44:57.663Z,16.27
2022-09-26T04:48:07.725Z,17.20
2022-09-26T04:51:20.839Z,18.00
2022-09-26T04:54:26.316Z,19.45
2022-09-26T04:57:29.610Z,22.13
2022-09-26T05:00:32.326Z,15.85
2022-09-26T05:03:38.924Z,17.92
2022-09-26T05:06:41.475Z,17.10
2022-09-26T05:09:50.170Z,19.40
2022-09-26T05:12:54.927Z,25.30
2022-09-26T05:16:01.740Z,23.27
2022-09-26T05:19:08.724Z,21.95
2022-09-26T05:22:15.842Z,20.30
2022-09-26T05:25:36.865Z,42.38
2022-09-26T05:28:39.262Z,39.92
2022-09-26T05:31:43.594Z,30.13
2022-09-26T05:34:47.079Z,30.90
2022-09-26T05:38:02.635Z,25.67
2022-09-26T05:41:06.466Z,26.08
2022-09-26T05:44:09.889Z,29.45
2022-09-26T05:47:13.091Z,31.65
2022-09-26T05:50:16.095Z,28.02
2022-09-26T05:53:19.786Z,34.43
2022-09-26T05:56:23.816Z,28.48
2022-09-26T05:59:39.894Z,29.77
2022-09-26T06:03:05.670Z,32.05
2022-09-26T06:06:20.257Z,32.05
2022-09-26T06:09:23.206Z,32.83
2022-09-26T06:12:50.121Z,34.88
2022-09-26T06:15:54.569Z,34.92
2022-09-26T06:18:57.016Z,35.53
2022-09-26T06:21:59.400Z,38.95
2022-09-26T06:25:01.746Z,44.50
2022-09-26T06:28:04.139Z,42.33
2022-09-26T06:31:14.987Z,44.45
2022-09-26T06:34:37.831Z,44.78
2022-09-26T06:37:59.496Z,33.30
2022-09-26T06:41:02.270Z,30.77
2022-09-26T06:44:04.688Z,29.17
2022-09-26T06:47:23.369Z,28.85
2022-09-26T06:50:32.287Z,27.77
2022-09-26T06:53:35.426Z,30.65
2022-09-26T06:56:38.141Z,28.53
2022-09-26T06:59:40.882Z,25.35
2022-09-26T07:02:56.639Z,24.27
2022-09-26T07:06:17.993Z,22.85
2022-09-26T07:09:20.490Z,25.85
2022-09-26T07:12:31.666Z,23.13
2022-09-26T07:15:36.066Z,22.50
2022-09-26T07:18:58.680Z,26.88
2022-09-26T07:22:29.872Z,24.77
2022-09-26T07:25:33.374Z,22.83
2022-09-26T07:28:38.374Z,22.53
2022-09-26T07:31:40.780Z,23.83
2022-09-26T07:34:50.023Z,26.88
2022-09-26T07:37:52.966Z,24.58
2022-09-26T07:40:55.647Z,22.85
2022-09-26T07:47:40.723Z,23.33
2022-09-26T07:50:58.768Z,20.38
2022-09-26T07:54:12.187Z,19.30
2022-09-26T07:57:35.406Z,21.88
2022-09-26T08:00:51.355Z,17.73
2022-09-26T08:04:29.707Z,19.83
2022-09-26T08:07:33.644Z,16.20
2022-09-26T08:10:45.046Z,17.30
2022-09-26T08:14:07.526Z,15.82
2022-09-26T08:17:23.603Z,17.67
2022-09-26T08:20:31.319Z,16.38
2022-09-26T08:23:35.484Z,15.23
2022-09-26T08:26:56.801Z,15.52
2022-09-26T08:30:05.472Z,15.98
2022-09-26T08:33:11.538Z,14.87
2022-09-26T08:36:18.320Z,16.85
2022-09-26T08:39:53.353Z,14.88
2022-09-26T08:43:51.181Z,15.15
2022-09-26T08:47:04.573Z,17.73
2022-09-26T08:50:44.896Z,12.90
2022-09-26T08:53:55.478Z,12.32
2022-09-26T08:57:04.295Z,16.88
2022-09-26T09:00:19.287Z,12.82
2022-09-26T09:03:34.320Z,12.93
2022-09-26T09:06:38.642Z,12.57
2022-09-26T09:09:41.093Z,12.85
2022-09-26T09:13:14.536Z,13.68
2022-09-26T09:16:32.461Z,11.05
2022-09-26T09:20:33.853Z,10.75
2022-09-26T09:24:15.805Z,11.50
2022-09-26T09:30:57.042Z,11.18
2022-09-26T09:34:38.380Z,11.95
2022-09-26T09:38:28.804Z,8.68
2022-09-26T09:41:50.599Z,8.17
2022-09-26T09:45:00.560Z,8.50
2022-09-26T09:48:04.507Z,7.80
2022-09-26T09:51:20.264Z,7.75
2022-09-26T09:54:38.197Z,8.07
2022-09-26T09:57:46.343Z,8.07
2022-09-26T10:01:17.443Z,7.68
2022-09-26T10:04:23.247Z,7.78
2022-09-26T10:07:26.840Z,7.68
2022-09-26T10:11:12.915Z,8.23
2022-09-26T10:14:46.127Z,7.67
2022-09-26T10:18:26.134Z,7.35
2022-09-26T10:21:48.658Z,8.15
2022-09-26T10:24:53.201Z,7.65
2022-09-26T10:27:58.139Z,11.43
2022-09-26T10:31:10.760Z,6.97
2022-09-26T10:34:40.228Z,8.05
2022-09-26T10:37:43.748Z,8.63
2022-09-26T10:40:55.640Z,8.15
2022-09-26T10:43:59.412Z,7.97
2022-09-26T10:47:40.746Z,7.40
2022-09-26T10:51:17.357Z,8.88
2022-09-26T10:54:41.869Z,7.80
2022-09-26T10:57:49.317Z,7.45
2022-09-26T11:00:54.443Z,8.23
2022-09-26T11:04:14.866Z,6.67
2022-09-26T11:07:52.295Z,7.38
2022-09-26T11:11:17.194Z,7.07
2022-09-26T11:14:29.196Z,8.40
2022-09-26T11:17:55.517Z,6.43
2022-09-26T11:21:23.151Z,5.83
2022-09-26T11:24:37.245Z,6.10
2022-09-26T11:27:46.086Z,7.25
2022-09-26T11:30:58.832Z,7.30
2022-09-26T11:34:07.667Z,6.03
2022-09-26T11:37:50.768Z,6.50
2022-09-26T11:41:38.496Z,7.60
2022-09-26T11:44:56.849Z,6.20
2022-09-26T11:48:55.638Z,9.68
2022-09-26T11:52:58.705Z,6.95
2022-09-26T11:56:19.401Z,8.27
2022-09-26T11:59:45.500Z,11.55
2022-09-26T12:03:13.987Z,7.95
2022-09-26T12:06:35.057Z,8.88
2022-09-26T12:09:54.693Z,6.43
2022-09-26T12:13:16.418Z,7.73
2022-09-26T12:16:55.537Z,6.68
2022-09-26T12:20:20.726Z,7.50
2022-09-26T12:23:45.867Z,6.97
2022-09-26T12:27:11.738Z,8.18
2022-09-26T12:30:15.740Z,6.93
2022-09-26T12:33:47.228Z,6.55
2022-09-26T12:37:15.431Z,7.25
2022-09-26T12:40:49.460Z,7.50
2022-09-26T12:44:07.792Z,6.18
2022-09-26T12:47:10.180Z,6.53
2022-09-26T12:50:31.300Z,6.95
2022-09-26T12:53:33.848Z,6.18
2022-09-26T12:56:54.851Z,6.45
2022-09-26T13:00:11.015Z,7.13
2022-09-26T13:03:47.338Z,6.00
2022-09-26T13:07:46.886Z,5.55
2022-09-26T13:11:01.590Z,7.07
2022-09-26T13:14:19.532Z,6.28
2022-09-26T13:17:28.139Z,5.93
2022-09-26T13:21:02.958Z,5.43
2022-09-26T13:24:14.029Z,6.60
2022-09-26T13:27:22.192Z,6.70
2022-09-26T13:30:29.439Z,4.75
2022-09-26T13:33:53.115Z,6.45
2022-09-26T13:36:59.100Z,5.80
2022-09-26T13:40:34.220Z,4.80
2022-09-26T13:43:43.871Z,9.88
2022-09-26T13:46:55.795Z,7.57
2022-09-26T13:50:23.644Z,8.75
2022-09-26T13:53:34.673Z,6.70
2022-09-26T13:56:37.013Z,6.25
2022-09-26T13:59:54.202Z,6.38
2022-09-26T14:03:09.524Z,6.15
2022-09-26T14:06:26.218Z,8.05
2022-09-26T14:09:55.604Z,6.17
2022-09-26T14:13:01.487Z,7.80
2022-09-26T14:16:28.665Z,7.70
2022-09-26T14:19:39.430Z,6.10
2022-09-26T14:22:51.291Z,6.35
2022-09-26T14:25:56.629Z,6.97
2022-09-26T14:29:29.879Z,6.15
2022-09-26T14:32:39.185Z,6.32
2022-09-26T14:35:43.186Z,7.45
2022-09-26T14:38:48.419Z,6.93
2022-09-26T14:41:50.914Z,6.43
2022-09-26T14:45:07.019Z,5.68
2022-09-26T14:48:26.836Z,7.18
2022-09-26T14:51:49.172Z,6.90
2022-09-26T14:54:56.470Z,6.10
2022-09-26T14:58:37.289Z,6.67
2022-09-26T15:01:40.047Z,7.57
2022-09-26T15:04:46.271Z,5.68
2022-09-26T15:07:55.741Z,6.85
2022-09-26T15:11:00.290Z,5.90
2022-09-26T15:14:13.796Z,8.23
2022-09-26T15:17:25.752Z,6.88
2022-09-26T15:20:32.117Z,7.95
2022-09-26T15:23:46.663Z,29.75
2022-09-26T15:26:49.530Z,9.63
2022-09-26T15:29:57.942Z,6.13
2022-09-26T15:33:04.749Z,7.18
2022-09-26T15:36:07.124Z,6.72
2022-09-26T15:39:31.487Z,6.53
2022-09-26T15:42:52.462Z,7.60
2022-09-26T15:45:58.351Z,7.90
2022-09-26T15:49:01.170Z,8.10
2022-09-26T15:52:04.877Z,8.25
2022-09-26T15:55:10.898Z,11.23
2022-09-26T15:58:18.470Z,27.40
2022-09-26T16:01:25.767Z,9.43
2022-09-26T16:04:30.239Z,10.82
2022-09-26T16:07:32.913Z,11.77
2022-09-26T16:10:35.397Z,13.98
2022-09-26T16:13:42.825Z,12.07
2022-09-26T16:16:45.274Z,12.47
2022-09-26T16:19:54.194Z,10.32
2022-09-26T16:23:03.338Z,10.30
2022-09-26T16:26:21.597Z,9.35
2022-09-26T16:29:35.587Z,9.20
2022-09-26T16:32:38.230Z,11.87
2022-09-26T16:35:46.579Z,11.60
2022-09-26T16:38:57.844Z,9.95
2022-09-26T16:42:05.842Z,9.23
2022-09-26T16:45:14.799Z,9.80
2022-09-26T16:48:36.839Z,10.27
2022-09-26T16:51:39.894Z,10.55
2022-09-26T16:54:42.667Z,12.10
2022-09-26T16:57:56.848Z,12.15
2022-09-26T17:01:17.756Z,12.30
2022-09-26T17:04:31.962Z,12.30
2022-09-26T17:07:34.331Z,12.55
2022-09-26T17:10:37.751Z,14.23
2022-09-26T17:13:40.892Z,17.02
2022-09-26T17:16:46.936Z,15.57
2022-09-26T17:19:55.536Z,15.10
2022-09-26T17:23:16.902Z,15.98
2022-09-26T17:26:24.338Z,20.42
2022-09-26T17:29:33.320Z,24.08
2022-09-26T17:32:38.187Z,25.83
2022-09-26T17:35:41.875Z,23.57
2022-09-26T17:38:44.476Z,33.78
2022-09-26T17:41:48.199Z,34.95
2022-09-26T17:44:51.088Z,40.25
2022-09-26T17:47:59.301Z,21.77
2022-09-26T17:51:04.188Z,17.23
2022-09-26T17:54:07.490Z,20.70
2022-09-26T17:57:14.174Z,18.02
2022-09-26T18:00:18.000Z,18.73
2022-09-26T18:03:24.150Z,22.65
2022-09-26T18:06:31.363Z,23.23
2022-09-26T18:09:35.331Z,28.02
2022-09-26T18:12:37.880Z,34.15
2022-09-26T18:15:41.332Z,32.97
2022-09-26T18:18:44.172Z,31.80
2022-09-26T18:21:50.460Z,28.43
2022-09-26T18:25:05.248Z,23.05
2022-09-26T18:28:13.042Z,23.65
2022-09-26T18:31:15.552Z,23.55
2022-09-26T18:34:20.287Z,21.73
2022-09-26T18:37:22.648Z,21.13
2022-09-26T18:40:27.730Z,21.48
2022-09-26T18:43:31.617Z,25.95
2022-09-26T18:46:34.401Z,28.92
2022-09-26T18:49:37.793Z,28.17
2022-09-26T18:52:40.194Z,27.93
2022-09-26T18:56:01.099Z,32.33
2022-09-26T18:59:04.020Z,35.58
2022-09-26T19:02:21.439Z,37.65
2022-09-26T19:05:25.229Z,37.78
2022-09-26T19:08:35.201Z,36.13
2022-09-26T19:11:38.000Z,36.72
2022-09-26T19:14:40.582Z,33.53
2022-09-26T19:17:43.477Z,30.17
2022-09-26T19:20:45.945Z,27.80
2022-09-26T19:23:49.616Z,26.07
2022-09-26T19:26:56.755Z,24.17
2022-09-26T19:30:17.312Z,25.25
2022-09-26T19:33:19.943Z,20.52
2022-09-26T19:36:22.505Z,21.52
2022-09-26T19:39:26.325Z,20.33
2022-09-26T19:42:28.697Z,20.35
2022-09-26T19:45:34.318Z,18.63
2022-09-26T19:48:39.005Z,17.92
2022-09-26T19:51:41.575Z,18.02
2022-09-26T19:54:45.242Z,17.33
2022-09-26T19:57:47.721Z,17.75
2022-09-26T20:00:56.114Z,21.08
2022-09-26T20:03:58.923Z,19.63
2022-09-26T20:07:01.511Z,20.45
2022-09-26T20:10:15.772Z,22.37
2022-09-26T20:13:18.735Z,24.85
2022-09-26T20:16:21.489Z,25.02
2022-09-26T20:19:34.451Z,26.02
2022-09-26T20:22:39.999Z,22.55
2022-09-26T20:25:42.451Z,21.10
2022-09-26T20:28:45.512Z,23.77
2022-09-26T20:31:48.001Z,25.90
2022-09-26T20:34:50.411Z,27.27
2022-09-26T20:37:58.818Z,24.50
2022-09-26T20:41:09.309Z,23.07
2022-09-26T20:44:28.526Z,27.05
2022-09-26T20:47:31.434Z,24.17
2022-09-26T20:50:37.376Z,24.60
2022-09-26T20:53:39.772Z,28.10
2022-09-26T20:56:42.320Z,30.00
2022-09-26T20:59:44.731Z,30.60
2022-09-26T21:02:51.584Z,27.17
2022-09-26T21:05:54.108Z,30.40
2022-09-26T21:08:57.296Z,30.55
2022-09-26T21:12:01.345Z,34.27
2022-09-26T21:15:04.002Z,35.00
2022-09-26T21:18:06.439Z,41.60
2022-09-26T21:21:42.345Z,44.28
2022-09-26T21:25:05.456Z,40.42
2022-09-26T21:28:28.183Z,41.73
2022-09-26T21:31:33.116Z,35.60
2022-09-26T21:34:36.739Z,42.72
2022-09-26T21:37:39.866Z,44.10
2022-09-26T21:40:43.991Z,46.17
2022-09-26T21:43:51.701Z,48.17
2022-09-26T21:46:54.080Z,34.95
2022-09-26T21:49:58.073Z,35.50
2022-09-26T21:53:05.713Z,88.35
2022-09-26T21:56:17.071Z,84.85
2022-09-26T21:59:22.424Z,68.93
2022-09-26T22:02:25.793Z,46.45
2022-09-26T22:05:29.006Z,47.50
2022-09-26T22:08:31.662Z,33.67
2022-09-26T22:11:36.222Z,64.72
2022-09-26T22:14:38.650Z,55.27
2022-09-26T22:17:41.120Z,33.35
2022-09-26T22:20:43.606Z,76.45
2022-09-26T22:23:49.481Z,83.28
2022-09-26T22:26:51.853Z,62.78
2022-09-26T22:29:54.694Z,80.33
2022-09-26T22:32:57.185Z,26.20
2022-09-26T22:36:00.003Z,44.92
2022-09-26T22:39:02.597Z,25.15
2022-09-26T22:42:05.287Z,36.75
2022-09-26T22:45:08.197Z,25.90
2022-09-26T22:48:10.603Z,36.15
2022-09-26T22:51:16.042Z,53.42
2022-09-26T22:54:18.518Z,81.20
2022-09-26T22:57:20.957Z,41.55
2022-09-26T23:00:23.341Z,110.50
2022-09-26T23:03:25.698Z,186.55
2022-09-26T23:06:28.519Z,81.22
2022-09-26T23:09:30.872Z,120.43
2022-09-26T23:12:33.327Z,123.07
2022-09-26T23:15:35.716Z,101.43
2022-09-26T23:18:40.097Z,178.40
2022-09-26T23:21:42.588Z,222.20
2022-09-26T23:24:45.012Z,232.68
2022-09-26T23:27:47.535Z,149.00
2022-09-26T23:30:50.663Z,110.37
2022-09-26T23:33:54.009Z,135.20
2022-09-26T23:36:56.437Z,120.32
2022-09-26T23:39:58.866Z,92.57
2022-09-26T23:43:02.329Z,99.35
2022-09-26T23:46:05.546Z,52.77
2022-09-26T23:49:08.113Z,64.20
2022-09-26T23:52:10.691Z,65.72
2022-09-26T23:55:13.972Z,114.13
2022-09-26T23:58:16.715Z,80.82
